createdAt,value
2019-01-23T00:00:32.143Z,97642.66
2019-01-23T00:03:03.195Z,97638.77
2019-01-23T00:05:36.623Z,97633.83
2019-01-23T00:08:06.740Z,97629.16
2019-01-23T00:10:36.251Z,97626.31
2019-01-23T00:13:09.741Z,97624.63
2019-01-23T00:15:39.591Z,97623.09
2019-01-23T00:18:13.394Z,97624.63
2019-01-23T00:20:43.773Z,97616.77
2019-01-23T00:23:14.615Z,97621.35
2019-01-23T00:25:43.944Z,97610.20
2019-01-23T00:28:13.676Z,97612.14
2019-01-23T00:30:42.942Z,97610.16
2019-01-23T00:33:14.244Z,97607.58
2019-01-23T00:35:45.550Z,97604.20
2019-01-23T00:38:17.305Z,97605.22
2019-01-23T00:40:46.895Z,97600.58
2019-01-23T00:43:17.933Z,97604.98
2019-01-23T00:45:47.446Z,97597.95
2019-01-23T00:48:17.467Z,97598.51
2019-01-23T00:50:46.998Z,97592.61
2019-01-23T00:53:17.280Z,97588.39
2019-01-23T00:55:47.108Z,97584.72
2019-01-23T00:58:17.144Z,97582.12
2019-01-23T01:00:47.008Z,97575.05
2019-01-23T01:03:21.120Z,97580.69
2019-01-23T01:05:51.696Z,97575.11
2019-01-23T01:08:21.183Z,97570.20
2019-01-23T01:10:51.877Z,97564.18
2019-01-23T01:13:23.965Z,97568.84
2019-01-23T01:15:53.498Z,97567.07
2019-01-23T01:18:22.685Z,97562.95
2019-01-23T01:20:57.566Z,97571.67
2019-01-23T01:23:27.555Z,97561.59
2019-01-23T01:25:57.184Z,97558.61
2019-01-23T01:28:26.868Z,97553.61
2019-01-23T01:31:00.061Z,97560.98
2019-01-23T01:33:33.956Z,97567.73
2019-01-23T01:36:05.899Z,97562.49
2019-01-23T01:38:35.128Z,97564.75
2019-01-23T01:41:11.517Z,97565.02
2019-01-23T01:43:44.860Z,97563.61
2019-01-23T01:46:14.637Z,97560.92
2019-01-23T01:48:44.437Z,97556.34
2019-01-23T01:51:15.161Z,97558.34
2019-01-23T01:53:44.413Z,97553.61
2019-01-23T01:56:16.989Z,97544.48
2019-01-23T01:58:48.517Z,97543.39
2019-01-23T02:01:18.560Z,97540.81
2019-01-23T02:03:58.187Z,97539.81
2019-01-23T02:06:31.562Z,97538.52
2019-01-23T02:09:02.081Z,97534.05
2019-01-23T02:11:33.984Z,97531.34
2019-01-23T02:14:05.956Z,97536.06
2019-01-23T02:16:35.746Z,97531.14
2019-01-23T02:19:08.401Z,97526.80
2019-01-23T02:21:38.044Z,97524.36
2019-01-23T02:24:08.091Z,97525.78
2019-01-23T02:26:40.408Z,97525.05
2019-01-23T02:29:10.209Z,97524.53
2019-01-23T02:31:42.027Z,97517.78
2019-01-23T02:34:11.941Z,97517.61
2019-01-23T02:36:42.993Z,97516.22
2019-01-23T02:39:16.822Z,97510.39
2019-01-23T02:41:47.601Z,97506.25
2019-01-23T02:44:17.337Z,97501.33
2019-01-23T02:46:47.145Z,97490.19
2019-01-23T02:49:16.669Z,97492.03
2019-01-23T02:51:47.018Z,97489.11
2019-01-23T02:54:19.106Z,97477.97
2019-01-23T02:56:48.851Z,97478.55
2019-01-23T02:59:21.102Z,97470.30
2019-01-23T03:01:51.961Z,97472.44
2019-01-23T03:04:22.751Z,97470.13
2019-01-23T03:06:53.628Z,97463.17
2019-01-23T03:09:24.835Z,97463.05
2019-01-23T03:11:55.146Z,97460.45
2019-01-23T03:14:27.157Z,97464.89
2019-01-23T03:16:57.192Z,97461.65
2019-01-23T03:19:27.886Z,97459.31
2019-01-23T03:21:57.376Z,97452.48
2019-01-23T03:24:29.378Z,97454.56
2019-01-23T03:26:59.439Z,97452.03
2019-01-23T03:29:29.985Z,97447.08
2019-01-23T03:31:59.416Z,97447.98
2019-01-23T03:34:29.218Z,97444.30
2019-01-23T03:36:58.415Z,97447.37
2019-01-23T03:39:30.395Z,97437.20
2019-01-23T03:41:59.902Z,97440.25
2019-01-23T03:44:30.834Z,97435.62
2019-01-23T03:47:01.254Z,97442.03
2019-01-23T03:49:37.571Z,97438.38
2019-01-23T03:52:10.272Z,97439.21
2019-01-23T03:54:39.597Z,97433.80
2019-01-23T03:57:09.689Z,97435.84
2019-01-23T03:59:40.032Z,97429.56
2019-01-23T04:02:09.834Z,97435.65
2019-01-23T04:04:40.314Z,97432.67
2019-01-23T04:07:10.571Z,97427.39
2019-01-23T04:09:40.180Z,97428.23
2019-01-23T04:12:10.871Z,97431.95
2019-01-23T04:14:40.608Z,97430.14
2019-01-23T04:17:13.191Z,97430.98
2019-01-23T04:19:43.721Z,97428.27
2019-01-23T04:22:15.416Z,97428.62
2019-01-23T04:24:45.479Z,97429.75
2019-01-23T04:27:18.921Z,97425.58
2019-01-23T04:29:48.879Z,97424.67
2019-01-23T04:32:20.935Z,97418.39
2019-01-23T04:34:51.525Z,97418.94
2019-01-23T04:37:22.350Z,97417.32
2019-01-23T04:39:51.983Z,97412.69
2019-01-23T04:42:23.540Z,97407.70
2019-01-23T04:44:57.842Z,97411.11
2019-01-23T04:47:27.404Z,97407.22
2019-01-23T04:49:57.222Z,97411.42
2019-01-23T04:52:55.847Z,97410.65
2019-01-23T04:55:25.818Z,97408.03
2019-01-23T04:57:55.409Z,97404.92
2019-01-23T05:00:31.060Z,97400.61
2019-01-23T05:03:03.531Z,97394.01
2019-01-23T05:05:36.158Z,97393.16
2019-01-23T05:08:06.698Z,97393.17
2019-01-23T05:10:36.984Z,97395.47
2019-01-23T05:13:06.873Z,97394.14
2019-01-23T05:15:37.968Z,97394.08
2019-01-23T05:18:08.781Z,97393.63
2019-01-23T05:20:41.938Z,97392.26
2019-01-23T05:23:11.155Z,97392.69
2019-01-23T05:25:42.541Z,97394.17
2019-01-23T05:28:14.458Z,97393.91
2019-01-23T05:30:45.571Z,97392.72
2019-01-23T05:33:22.035Z,97393.63
2019-01-23T05:35:52.172Z,97387.83
2019-01-23T05:38:25.252Z,97391.06
2019-01-23T05:40:55.612Z,97389.77
2019-01-23T05:43:28.376Z,97387.98
2019-01-23T05:45:59.937Z,97394.46
2019-01-23T05:48:30.257Z,97390.73
2019-01-23T05:50:59.825Z,97388.73
2019-01-23T05:53:29.517Z,97385.08
2019-01-23T05:56:02.712Z,97389.41
2019-01-23T05:58:38.588Z,97386.05
2019-01-23T06:01:08.379Z,97374.97
2019-01-23T06:03:51.159Z,97376.59
2019-01-23T06:06:22.228Z,97378.15
2019-01-23T06:08:52.498Z,97365.42
2019-01-23T06:11:22.037Z,97377.21
2019-01-23T06:13:57.770Z,97379.51
2019-01-23T06:16:28.470Z,97372.09
2019-01-23T06:18:58.480Z,97372.26
2019-01-23T06:21:33.233Z,97373.20
2019-01-23T06:24:04.636Z,97365.80
2019-01-23T06:26:34.145Z,97366.11
2019-01-23T06:29:04.171Z,97366.00
2019-01-23T06:31:34.036Z,97366.06
2019-01-23T06:34:04.283Z,97369.44
2019-01-23T06:36:54.461Z,97370.64
2019-01-23T06:39:24.195Z,97372.06
2019-01-23T06:41:58.441Z,97361.16
2019-01-23T06:44:36.577Z,97363.00
2019-01-23T06:47:06.116Z,97358.27
2019-01-23T06:49:40.073Z,97358.34
2019-01-23T06:52:10.210Z,97356.97
2019-01-23T06:54:40.003Z,97356.74
2019-01-23T06:57:09.490Z,97357.36
2019-01-23T06:59:42.593Z,97363.67
2019-01-23T07:02:12.105Z,97361.27
2019-01-23T07:04:43.052Z,97360.50
2019-01-23T07:07:14.007Z,97360.50
2019-01-23T07:09:44.053Z,97356.22
2019-01-23T07:12:14.455Z,97360.47
2019-01-23T07:14:43.961Z,97361.19
2019-01-23T07:17:16.814Z,97356.42
2019-01-23T07:19:50.146Z,97357.97
2019-01-23T07:22:22.225Z,97363.09
2019-01-23T07:24:56.334Z,97354.73
2019-01-23T07:27:28.413Z,97356.44
2019-01-23T07:30:01.501Z,97359.48
2019-01-23T07:32:38.930Z,97352.42
2019-01-23T07:35:13.324Z,97353.70
2019-01-23T07:37:44.450Z,97356.24
2019-01-23T07:40:15.346Z,97355.79
2019-01-23T07:42:45.604Z,97353.72
2019-01-23T07:45:16.115Z,97354.30
2019-01-23T07:47:45.722Z,97356.48
2019-01-23T07:50:16.134Z,97355.66
2019-01-23T07:52:45.628Z,97352.89
2019-01-23T07:55:16.317Z,97350.83
2019-01-23T07:57:45.952Z,97347.17
2019-01-23T08:00:18.802Z,97345.38
2019-01-23T08:02:51.641Z,97347.19
2019-01-23T08:05:25.367Z,97345.42
2019-01-23T08:07:59.121Z,97345.64
2019-01-23T08:10:29.265Z,97347.19
2019-01-23T08:13:01.863Z,97345.19
2019-01-23T08:15:36.410Z,97347.66
2019-01-23T08:18:06.791Z,97355.75
2019-01-23T08:20:36.845Z,97347.87
2019-01-23T08:23:06.844Z,97351.30
2019-01-23T08:25:36.376Z,97355.05
2019-01-23T08:28:05.992Z,97350.91
2019-01-23T08:30:38.887Z,97351.61
2019-01-23T08:33:08.769Z,97354.06
2019-01-23T08:35:38.067Z,97351.94
2019-01-23T08:38:08.652Z,97351.77
2019-01-23T08:40:42.058Z,97352.45
2019-01-23T08:43:11.553Z,97356.94
2019-01-23T08:45:43.793Z,97355.42
2019-01-23T08:48:13.046Z,97355.63
2019-01-23T08:50:47.468Z,97354.80
2019-01-23T08:53:17.764Z,97354.98
2019-01-23T08:55:53.860Z,97342.80
2019-01-23T08:58:20.786Z,97341.95
2019-01-23T09:00:50.293Z,97346.50
2019-01-23T09:03:24.759Z,97348.19
2019-01-23T09:05:54.272Z,97347.55
2019-01-23T09:08:24.698Z,97349.23
2019-01-23T09:10:59.654Z,97346.82
2019-01-23T09:13:33.697Z,97344.37
2019-01-23T09:16:03.378Z,97341.78
2019-01-23T09:18:32.602Z,97351.44
2019-01-23T09:21:02.670Z,97348.13
2019-01-23T09:23:32.742Z,97353.52
2019-01-23T09:26:10.036Z,97352.84
2019-01-23T09:28:41.510Z,97362.70
2019-01-23T09:32:00.188Z,97355.33
2019-01-23T09:34:42.293Z,97356.67
2019-01-23T09:38:06.168Z,97358.10
2019-01-23T09:40:57.391Z,97358.24
2019-01-23T09:44:19.728Z,97357.58
2019-01-23T09:47:17.186Z,97362.31
2019-01-23T09:50:16.010Z,97364.27
2019-01-23T09:53:34.004Z,97365.56
2019-01-23T09:56:04.517Z,97357.97
2019-01-23T09:58:36.592Z,97356.64
2019-01-23T10:01:10.391Z,97360.62
2019-01-23T10:03:40.090Z,97353.23
2019-01-23T10:06:12.852Z,97354.92
2019-01-23T10:08:43.172Z,97359.26
2019-01-23T10:11:14.546Z,97359.61
2019-01-23T10:13:45.751Z,97361.53
2019-01-23T10:16:18.199Z,97359.02
2019-01-23T10:18:47.731Z,97358.03
2019-01-23T10:21:17.439Z,97364.02
2019-01-23T10:23:46.677Z,97365.70
2019-01-23T10:26:16.419Z,97355.72
2019-01-23T10:28:46.172Z,97356.87
2019-01-23T10:31:20.207Z,97354.59
2019-01-23T10:33:50.787Z,97358.83
2019-01-23T10:36:20.108Z,97351.61
2019-01-23T10:38:49.326Z,97354.55
2019-01-23T10:41:22.979Z,97355.50
2019-01-23T10:43:54.408Z,97351.51
2019-01-23T10:46:41.202Z,97350.07
2019-01-23T10:49:14.249Z,97348.84
2019-01-23T10:51:43.480Z,97346.09
2019-01-23T10:54:14.366Z,97343.43
2019-01-23T10:56:43.978Z,97351.16
2019-01-23T10:59:15.151Z,97351.30
2019-01-23T11:01:44.373Z,97350.32
2019-01-23T11:04:15.279Z,97352.53
2019-01-23T11:06:44.478Z,97352.52
2019-01-23T11:09:14.049Z,97352.27
2019-01-23T11:11:44.336Z,97347.85
2019-01-23T11:14:14.553Z,97349.15
2019-01-23T11:16:43.764Z,97345.64
2019-01-23T11:19:13.533Z,97348.51
2019-01-23T11:21:43.308Z,97343.54
2019-01-23T11:24:14.315Z,97338.12
2019-01-23T11:26:43.829Z,97345.52
2019-01-23T11:29:13.315Z,97333.53
2019-01-23T11:31:42.729Z,97336.70
2019-01-23T11:34:12.527Z,97340.37
2019-01-23T11:36:46.761Z,97342.66
2019-01-23T11:39:17.241Z,97337.80
2019-01-23T11:41:47.074Z,97341.97
2019-01-23T11:44:28.648Z,97338.88
2019-01-23T11:47:01.558Z,97336.76
2019-01-23T11:49:32.669Z,97329.67
2019-01-23T11:52:03.910Z,97330.64
2019-01-23T11:54:33.461Z,97332.08
2019-01-23T11:57:03.054Z,97329.91
2019-01-23T11:59:33.336Z,97331.41
2019-01-23T12:02:03.650Z,97329.01
2019-01-23T12:04:37.703Z,97335.34
2019-01-23T12:07:09.395Z,97338.33
2019-01-23T12:09:39.695Z,97332.84
2019-01-23T12:12:10.980Z,97336.16
2019-01-23T12:14:40.424Z,97341.87
2019-01-23T12:17:11.904Z,97333.95
2019-01-23T12:19:41.129Z,97337.29
2019-01-23T12:22:12.101Z,97327.37
2019-01-23T12:24:43.106Z,97331.30
2019-01-23T12:27:13.889Z,97331.88
2019-01-23T12:29:43.224Z,97330.97
2019-01-23T12:32:13.474Z,97339.25
2019-01-23T12:34:43.897Z,97340.40
2019-01-23T12:37:14.849Z,97337.08
2019-01-23T12:39:44.342Z,97343.83
2019-01-23T12:42:13.594Z,97338.22
2019-01-23T12:44:44.849Z,97334.94
2019-01-23T12:47:16.597Z,97338.45
2019-01-23T12:49:46.084Z,97337.34
2019-01-23T12:52:15.359Z,97336.39
2019-01-23T12:54:47.144Z,97330.20
2019-01-23T12:57:22.700Z,97335.70
2019-01-23T12:59:54.887Z,97327.30
2019-01-23T13:02:24.737Z,97330.97
2019-01-23T13:04:58.316Z,97330.82
2019-01-23T13:07:39.708Z,97335.36
2019-01-23T13:10:13.420Z,97336.77
2019-01-23T13:12:43.677Z,97338.25
2019-01-23T13:15:18.889Z,97328.88
2019-01-23T13:17:49.542Z,97327.00
2019-01-23T13:20:24.620Z,97331.11
2019-01-23T13:23:00.174Z,97333.94
2019-01-23T13:25:31.935Z,97327.45
2019-01-23T13:28:08.123Z,97326.38
2019-01-23T13:30:39.495Z,97334.59
2019-01-23T13:33:10.297Z,97336.05
2019-01-23T13:35:41.567Z,97330.33
2019-01-23T13:38:16.624Z,97332.92
2019-01-23T13:40:48.912Z,97334.94
2019-01-23T13:43:19.316Z,97339.28
2019-01-23T13:45:49.772Z,97340.66
2019-01-23T13:48:22.539Z,97342.52
2019-01-23T13:50:52.073Z,97341.69
2019-01-23T13:53:21.381Z,97342.84
2019-01-23T13:55:51.449Z,97344.20
2019-01-23T13:58:23.683Z,97341.23
2019-01-23T14:00:53.682Z,97342.60
2019-01-23T14:03:24.331Z,97337.78
2019-01-23T14:05:55.701Z,97343.72
2019-01-23T14:08:25.181Z,97347.20
2019-01-23T14:10:57.069Z,97348.77
2019-01-23T14:13:28.517Z,97351.01
2019-01-23T14:15:58.408Z,97350.75
2019-01-23T14:18:28.757Z,97355.82
2019-01-23T14:20:58.722Z,97348.91
2019-01-23T14:23:32.007Z,97356.97
2019-01-23T14:26:01.821Z,97359.41
2019-01-23T14:28:38.041Z,97357.00
2019-01-23T14:31:07.694Z,97357.95
2019-01-23T14:33:39.684Z,97357.22
2019-01-23T14:36:12.746Z,97355.82
2019-01-23T14:38:42.271Z,97353.22
2019-01-23T14:41:15.884Z,97356.19
2019-01-23T14:43:46.671Z,97361.73
2019-01-23T14:46:17.053Z,97360.52
2019-01-23T14:48:51.819Z,97369.50
2019-01-23T14:51:24.754Z,97372.25
2019-01-23T14:53:56.543Z,97370.48
2019-01-23T14:56:28.198Z,97376.14
2019-01-23T14:59:00.031Z,97378.20
2019-01-23T15:01:32.046Z,97382.56
2019-01-23T15:04:01.619Z,97383.48
2019-01-23T15:06:31.666Z,97389.81
2019-01-23T15:09:00.842Z,97392.95
2019-01-23T15:11:30.087Z,97392.49
2019-01-23T15:14:00.991Z,97393.79
2019-01-23T15:16:38.852Z,97396.01
2019-01-23T15:19:08.797Z,97396.08
2019-01-23T15:21:41.684Z,97395.74
2019-01-23T15:24:15.484Z,97402.95
2019-01-23T15:26:47.966Z,97406.02
2019-01-23T15:29:19.347Z,97402.84
2019-01-23T15:31:48.547Z,97405.90
2019-01-23T15:34:19.065Z,97409.87
2019-01-23T15:36:49.667Z,97400.63
2019-01-23T15:39:21.309Z,97408.95
2019-01-23T15:41:54.264Z,97413.69
2019-01-23T15:44:24.172Z,97413.42
2019-01-23T15:46:56.425Z,97418.50
2019-01-23T15:49:28.094Z,97427.25
2019-01-23T15:51:57.706Z,97428.00
2019-01-23T15:54:27.530Z,97427.90
2019-01-23T15:56:58.101Z,97428.44
2019-01-23T15:59:27.329Z,97434.39
2019-01-23T16:01:59.269Z,97441.50
2019-01-23T16:04:31.176Z,97438.58
2019-01-23T16:07:02.994Z,97435.41
2019-01-23T16:09:36.086Z,97441.45
2019-01-23T16:12:07.800Z,97451.48
2019-01-23T16:14:40.320Z,97444.30
2019-01-23T16:17:10.201Z,97448.67
2019-01-23T16:19:40.616Z,97450.35
2019-01-23T16:22:12.101Z,97452.11
2019-01-23T16:24:41.366Z,97456.77
2019-01-23T16:27:11.123Z,97462.03
2019-01-23T16:29:44.743Z,97461.02
2019-01-23T16:32:16.771Z,97465.02
2019-01-23T16:34:52.162Z,97475.16
2019-01-23T16:37:23.021Z,97479.37
2019-01-23T16:39:53.315Z,97476.70
2019-01-23T16:42:23.941Z,97472.73
2019-01-23T16:44:55.297Z,97474.43
2019-01-23T16:47:25.841Z,97475.55
2019-01-23T16:49:56.807Z,97476.85
2019-01-23T16:52:29.348Z,97481.59
2019-01-23T16:55:00.326Z,97482.81
2019-01-23T16:57:30.618Z,97494.70
2019-01-23T17:00:00.236Z,97492.81
2019-01-23T17:02:30.866Z,97499.23
2019-01-23T17:05:01.694Z,97501.58
2019-01-23T17:07:31.808Z,97499.44
2019-01-23T17:10:01.281Z,97504.95
2019-01-23T17:12:34.818Z,97503.97
2019-01-23T17:15:05.234Z,97507.27
2019-01-23T17:17:35.296Z,97513.37
2019-01-23T17:20:05.810Z,97513.05
2019-01-23T17:22:35.712Z,97519.61
2019-01-23T17:25:05.925Z,97520.98
2019-01-23T17:27:35.172Z,97525.58
2019-01-23T17:30:05.153Z,97528.94
2019-01-23T17:32:35.347Z,97530.63
2019-01-23T17:35:05.591Z,97534.72
2019-01-23T17:37:35.322Z,97534.09
2019-01-23T17:40:05.868Z,97542.52
2019-01-23T17:42:37.087Z,97536.61
2019-01-23T17:45:09.345Z,97540.69
2019-01-23T17:47:38.997Z,97540.30
2019-01-23T17:50:12.385Z,97544.58
2019-01-23T17:52:41.926Z,97542.66
2019-01-23T17:55:15.220Z,97542.66
2019-01-23T17:57:44.496Z,97553.04
2019-01-23T18:00:27.676Z,97552.38
2019-01-23T18:02:56.925Z,97562.65
2019-01-23T18:05:26.196Z,97568.84
2019-01-23T18:07:55.862Z,97572.98
2019-01-23T18:10:25.365Z,97578.84
2019-01-23T18:12:54.945Z,97579.54
2019-01-23T18:15:25.292Z,97583.55
2019-01-23T18:17:54.520Z,97585.84
2019-01-23T18:20:25.739Z,97587.70
2019-01-23T18:22:55.018Z,97589.66
2019-01-23T18:25:24.559Z,97589.97
2019-01-23T18:27:55.051Z,97592.27
2019-01-23T18:30:34.258Z,97599.50
2019-01-23T18:33:04.814Z,97606.70
2019-01-23T18:36:20.922Z,97602.52
2019-01-23T18:40:09.781Z,97608.33
2019-01-23T18:43:19.146Z,97608.59
2019-01-23T18:46:31.356Z,97614.30
2019-01-23T18:49:47.776Z,97611.80
2019-01-23T18:52:21.217Z,97623.24
2019-01-23T18:54:51.855Z,97623.36
2019-01-23T18:57:24.422Z,97625.11
2019-01-23T18:59:59.141Z,97627.14
2019-01-23T19:02:25.776Z,97628.63
2019-01-23T19:04:55.595Z,97632.78
2019-01-23T19:07:25.201Z,97638.87
2019-01-23T19:09:54.548Z,97635.50
2019-01-23T19:12:24.495Z,97636.73
2019-01-23T19:14:54.585Z,97639.56
2019-01-23T19:17:23.783Z,97641.06
2019-01-23T19:19:53.785Z,97636.45
2019-01-23T19:22:23.748Z,97644.69
2019-01-23T19:24:53.422Z,97646.11
2019-01-23T19:27:25.736Z,97646.11
2019-01-23T19:29:56.061Z,97644.30
2019-01-23T19:32:25.344Z,97647.52
2019-01-23T19:35:00.401Z,97653.95
2019-01-23T19:37:32.522Z,97656.70
2019-01-23T19:40:03.162Z,97653.37
2019-01-23T19:42:35.205Z,97652.59
2019-01-23T19:45:05.325Z,97660.52
2019-01-23T19:47:34.619Z,97662.52
2019-01-23T19:50:04.599Z,97668.13
2019-01-23T19:52:34.367Z,97673.28
2019-01-23T19:55:04.773Z,97666.04
2019-01-23T19:57:44.986Z,97676.47
2019-01-23T20:00:20.227Z,97671.73
2019-01-23T20:02:55.263Z,97675.30
2019-01-23T20:05:27.284Z,97676.29
2019-01-23T20:07:56.777Z,97679.19
2019-01-23T20:10:28.356Z,97687.34
2019-01-23T20:12:58.589Z,97684.58
2019-01-23T20:15:28.223Z,97687.41
2019-01-23T20:18:05.663Z,97690.79
2019-01-23T20:20:39.043Z,97693.77
2019-01-23T20:23:08.269Z,97695.45
2019-01-23T20:25:38.298Z,97689.31
2019-01-23T20:28:10.206Z,97693.44
2019-01-23T20:30:42.586Z,97693.59
2019-01-23T20:33:12.277Z,97702.72
2019-01-23T20:35:42.236Z,97698.38
2019-01-23T20:38:17.124Z,97700.52
2019-01-23T20:40:47.092Z,97706.01
2019-01-23T20:43:19.914Z,97710.67
2019-01-23T20:45:50.700Z,97710.02
2019-01-23T20:48:22.133Z,97713.67
2019-01-23T20:50:52.414Z,97713.64
2019-01-23T20:53:21.674Z,97723.05
2019-01-23T20:55:52.027Z,97721.93
2019-01-23T20:58:24.491Z,97731.05
2019-01-23T21:00:54.317Z,97731.05
2019-01-23T21:03:26.109Z,97731.19
2019-01-23T21:05:59.963Z,97726.41
2019-01-23T21:08:30.582Z,97723.98
2019-01-23T21:11:11.676Z,97731.19
2019-01-23T21:13:42.096Z,97736.69
2019-01-23T21:16:11.291Z,97732.71
2019-01-23T21:18:41.908Z,97729.42
2019-01-23T21:21:13.536Z,97725.56
2019-01-23T21:23:43.393Z,97738.37
2019-01-23T21:26:12.596Z,97737.66
2019-01-23T21:28:41.845Z,97736.38
2019-01-23T21:31:11.350Z,97738.73
2019-01-23T21:33:42.792Z,97745.27
2019-01-23T21:36:12.279Z,97749.83
2019-01-23T21:38:42.945Z,97750.52
2019-01-23T21:41:12.485Z,97748.55
2019-01-23T21:43:41.998Z,97751.42
2019-01-23T21:46:11.607Z,97752.27
2019-01-23T21:48:41.751Z,97754.22
2019-01-23T21:51:10.976Z,97762.33
2019-01-23T21:53:40.862Z,97771.45
2019-01-23T21:56:10.681Z,97766.83
2019-01-23T21:58:41.584Z,97777.59
2019-01-23T22:01:17.275Z,97777.81
2019-01-23T22:03:50.063Z,97773.25
2019-01-23T22:06:19.683Z,97781.92
2019-01-23T22:08:49.232Z,97780.61
2019-01-23T22:11:18.976Z,97787.45
2019-01-23T22:13:48.319Z,97786.95
2019-01-23T22:16:17.825Z,97785.78
2019-01-23T22:18:47.195Z,97790.91
2019-01-23T22:21:16.518Z,97795.91
2019-01-23T22:23:47.194Z,97799.39
2019-01-23T22:26:16.678Z,97800.11
2019-01-23T22:28:45.943Z,97797.59
2019-01-23T22:31:18.099Z,97804.17
2019-01-23T22:33:47.680Z,97810.55
2019-01-23T22:36:17.711Z,97810.83
2019-01-23T22:38:47.232Z,97812.05
2019-01-23T22:41:16.722Z,97816.12
2019-01-23T22:43:45.951Z,97815.88
2019-01-23T22:46:15.198Z,97826.98
2019-01-23T22:48:44.490Z,97832.27
2019-01-23T22:51:13.999Z,97830.47
2019-01-23T22:53:43.206Z,97835.08
2019-01-23T22:56:12.491Z,97835.09
2019-01-23T22:58:41.753Z,97832.66
2019-01-23T23:01:39.843Z,97835.09
2019-01-23T23:04:09.883Z,97841.67
2019-01-23T23:06:39.171Z,97849.55
2019-01-23T23:09:10.717Z,97854.73
2019-01-23T23:11:41.102Z,97857.95
2019-01-23T23:14:11.143Z,97868.08
2019-01-23T23:16:41.895Z,97869.48
2019-01-23T23:19:11.404Z,97869.63
2019-01-23T23:21:41.295Z,97868.58
2019-01-23T23:24:11.483Z,97876.00
2019-01-23T23:26:40.753Z,97885.80
2019-01-23T23:29:10.245Z,97879.34
2019-01-23T23:31:40.268Z,97880.95
2019-01-23T23:34:10.083Z,97888.45
2019-01-23T23:36:39.458Z,97885.19
2019-01-23T23:39:12.428Z,97889.07
2019-01-23T23:41:41.661Z,97901.27
2019-01-23T23:44:11.209Z,97891.14
2019-01-23T23:46:40.712Z,97905.43
2019-01-23T23:49:10.298Z,97909.16
2019-01-23T23:51:39.827Z,97909.76
2019-01-23T23:54:09.104Z,97910.38
2019-01-23T23:56:39.550Z,97915.77
2019-01-23T23:59:09.139Z,97915.59
